AZU2340 SBSJ-SBTC
Flight info
| Callsign | AZU2340 |
|---|---|
| Flight time | N/A |
| Altitude | 37000 |
| Route | UBNOV UZ14 ENVOG |
| Aircraft | E195/M-SDE3GILORVW/S |
Departure
| Time | 2026-04-14 22:10 |
|---|---|
| Airport | Professor Urbano Ernesto Stumpf Airport (SBSJ) |
Arrival
| Time | N/A |
|---|---|
| Airport | Una-Comandatuba Airport (SBTC) |
| Time | Latitude | Longitude | Altitude | Speed | Heading |
|---|---|---|---|---|---|
| 2026-04-14 21:54 | -23.22647 | -45.86111 | 2135 ft | 0 kts | 45° |
| 2026-04-14 22:01 | -23.22654 | -45.86118 | 2135 ft | 2 kts | 41° |
| 2026-04-14 22:02 | -23.22665 | -45.86129 | 2135 ft | 2 kts | 45° |
| 2026-04-14 22:02 | -23.22676 | -45.86140 | 2135 ft | 1 kts | 45° |
| 2026-04-14 22:02 | -23.22683 | -45.86147 | 2135 ft | 2 kts | 27° |
| 2026-04-14 22:02 | -23.22697 | -45.86150 | 2135 ft | 2 kts | 346° |
| 2026-04-14 22:03 | -23.22708 | -45.86143 | 2135 ft | 1 kts | 315° |
| 2026-04-14 22:03 | -23.22709 | -45.86142 | 2135 ft | 0 kts | 315° |
| 2026-04-14 22:04 | -23.22700 | -45.86151 | 2135 ft | 2 kts | 318° |
| 2026-04-14 22:05 | -23.22678 | -45.86172 | 2135 ft | 5 kts | 318° |
| 2026-04-14 22:05 | -23.22644 | -45.86208 | 2135 ft | 8 kts | 315° |
| 2026-04-14 22:05 | -23.22598 | -45.86258 | 2135 ft | 10 kts | 315° |
| 2026-04-14 22:05 | -23.22539 | -45.86321 | 2135 ft | 13 kts | 315° |
| 2026-04-14 22:06 | -23.22467 | -45.86398 | 2135 ft | 15 kts | 315° |
| 2026-04-14 22:06 | -23.22384 | -45.86488 | 2135 ft | 18 kts | 315° |
| 2026-04-14 22:06 | -23.22289 | -45.86590 | 2134 ft | 20 kts | 314° |
| 2026-04-14 22:06 | -23.22190 | -45.86698 | 2134 ft | 19 kts | 314° |
| 2026-04-14 22:07 | -23.22099 | -45.86814 | 2134 ft | 20 kts | 305° |
| 2026-04-14 22:07 | -23.22018 | -45.86941 | 2134 ft | 19 kts | 304° |
| 2026-04-14 22:07 | -23.21945 | -45.87055 | 2134 ft | 10 kts | 305° |
| 2026-04-14 22:07 | -23.21918 | -45.87102 | 2134 ft | 5 kts | 274° |
| 2026-04-14 22:08 | -23.21918 | -45.87105 | 2134 ft | 0 kts | 272° |
| 2026-04-14 22:08 | -23.21918 | -45.87111 | 2134 ft | 2 kts | 271° |
| 2026-04-14 22:08 | -23.21928 | -45.87137 | 2134 ft | 5 kts | 231° |
| 2026-04-14 22:08 | -23.21959 | -45.87172 | 2134 ft | 7 kts | 224° |
| 2026-04-14 22:09 | -23.21995 | -45.87168 | 2134 ft | 0 kts | 134° |
| 2026-04-14 22:09 | -23.22009 | -45.87153 | 2134 ft | 20 kts | 134° |
| 2026-04-14 22:09 | -23.22264 | -45.86874 | 2134 ft | 82 kts | 135° |
| 2026-04-14 22:09 | -23.22801 | -45.86292 | 2135 ft | 134 kts | 135° |
| 2026-04-14 22:10 | -23.23551 | -45.85468 | 2270 ft | 160 kts | 133° |
| 2026-04-14 22:10 | -23.24304 | -45.84607 | 2798 ft | 159 kts | 133° |
| 2026-04-14 22:10 | -23.25092 | -45.83753 | 3372 ft | 164 kts | 134° |
| 2026-04-14 22:10 | -23.25963 | -45.82818 | 3724 ft | 188 kts | 132° |
| 2026-04-14 22:11 | -23.26465 | -45.81471 | 4024 ft | 211 kts | 89° |
| 2026-04-14 22:11 | -23.25881 | -45.79979 | 4476 ft | 232 kts | 46° |
| 2026-04-14 22:11 | -23.24396 | -45.79176 | 5193 ft | 245 kts | 15° |
| 2026-04-14 22:11 | -23.22721 | -45.78691 | 5830 ft | 257 kts | 18° |
| 2026-04-14 22:12 | -23.20958 | -45.78102 | 6448 ft | 271 kts | 19° |
| 2026-04-14 22:12 | -23.19139 | -45.77455 | 7175 ft | 278 kts | 20° |
| 2026-04-14 22:12 | -23.17307 | -45.76781 | 7973 ft | 282 kts | 20° |
| 2026-04-14 22:12 | -23.15442 | -45.76085 | 8741 ft | 286 kts | 21° |
| 2026-04-14 22:13 | -23.13551 | -45.75374 | 9485 ft | 290 kts | 21° |
| 2026-04-14 22:13 | -23.11646 | -45.74657 | 10191 ft | 294 kts | 21° |
| 2026-04-14 22:13 | -23.09695 | -45.73920 | 10857 ft | 299 kts | 21° |
| 2026-04-14 22:13 | -23.07717 | -45.73174 | 11412 ft | 308 kts | 21° |
| 2026-04-14 22:14 | -23.05660 | -45.72397 | 11936 ft | 317 kts | 20° |
| 2026-04-14 22:14 | -23.03522 | -45.71590 | 12439 ft | 327 kts | 20° |
| 2026-04-14 22:14 | -23.01360 | -45.70775 | 13014 ft | 334 kts | 20° |
| 2026-04-14 22:14 | -22.99164 | -45.69947 | 13661 ft | 337 kts | 20° |
| 2026-04-14 22:15 | -22.96930 | -45.69105 | 14345 ft | 340 kts | 20° |
| 2026-04-14 22:15 | -22.94682 | -45.68258 | 15015 ft | 342 kts | 20° |
| 2026-04-14 22:15 | -22.92445 | -45.67415 | 15646 ft | 344 kts | 20° |
| 2026-04-14 22:15 | -22.90154 | -45.66553 | 16240 ft | 348 kts | 21° |
| 2026-04-14 22:16 | -22.87860 | -45.65689 | 16826 ft | 351 kts | 20° |
| 2026-04-14 22:16 | -22.85530 | -45.64812 | 17390 ft | 354 kts | 21° |
| 2026-04-14 22:16 | -22.83182 | -45.63929 | 17954 ft | 358 kts | 20° |
| 2026-04-14 22:16 | -22.80821 | -45.63041 | 18490 ft | 362 kts | 20° |
| 2026-04-14 22:17 | -22.78438 | -45.62145 | 18997 ft | 367 kts | 20° |
| 2026-04-14 22:17 | -22.75984 | -45.61223 | 19510 ft | 371 kts | 20° |
| 2026-04-14 22:17 | -22.73521 | -45.60297 | 20029 ft | 375 kts | 20° |
| 2026-04-14 22:17 | -22.71066 | -45.59376 | 20502 ft | 380 kts | 19° |
| 2026-04-14 22:18 | -22.68523 | -45.58421 | 21011 ft | 384 kts | 19° |
| 2026-04-14 22:18 | -22.66012 | -45.57480 | 21505 ft | 387 kts | 19° |
| 2026-04-14 22:18 | -22.63450 | -45.56519 | 21991 ft | 391 kts | 19° |
| 2026-04-14 22:18 | -22.60870 | -45.55551 | 22445 ft | 395 kts | 19° |
| 2026-04-14 22:19 | -22.58258 | -45.54573 | 22925 ft | 398 kts | 19° |
| 2026-04-14 22:19 | -22.52949 | -45.52584 | 23849 ft | 405 kts | 19° |
| 2026-04-14 22:19 | -22.50290 | -45.51589 | 24290 ft | 409 kts | 19° |
| 2026-04-14 22:20 | -22.47577 | -45.50575 | 24713 ft | 413 kts | 19° |
| 2026-04-14 22:20 | -22.44843 | -45.49552 | 25169 ft | 416 kts | 19° |
| 2026-04-14 22:20 | -22.42088 | -45.48522 | 25594 ft | 419 kts | 19° |
| 2026-04-14 22:20 | -22.39343 | -45.47496 | 26021 ft | 423 kts | 19° |
| 2026-04-14 22:21 | -22.36517 | -45.46441 | 26423 ft | 426 kts | 19° |
| 2026-04-14 22:21 | -22.33704 | -45.45391 | 26831 ft | 430 kts | 19° |
| 2026-04-14 22:21 | -22.30881 | -45.44338 | 27224 ft | 433 kts | 19° |
| 2026-04-14 22:21 | -22.28006 | -45.43265 | 27607 ft | 437 kts | 19° |
| 2026-04-14 22:22 | -22.25121 | -45.42189 | 27980 ft | 440 kts | 19° |
| 2026-04-14 22:22 | -22.22202 | -45.41101 | 28362 ft | 443 kts | 19° |
| 2026-04-14 22:22 | -22.19286 | -45.40015 | 28771 ft | 446 kts | 19° |
| 2026-04-14 22:22 | -22.16348 | -45.38921 | 29129 ft | 449 kts | 19° |
| 2026-04-14 22:23 | -22.13391 | -45.37821 | 29426 ft | 453 kts | 19° |
| 2026-04-14 22:23 | -22.10374 | -45.36698 | 29704 ft | 458 kts | 19° |
| 2026-04-14 22:23 | -22.07370 | -45.35581 | 30000 ft | 462 kts | 19° |
| 2026-04-14 22:23 | -22.04342 | -45.34207 | 30240 ft | 468 kts | 28° |
| 2026-04-14 22:24 | -22.01566 | -45.32346 | 30500 ft | 471 kts | 38° |
| 2026-04-14 22:24 | -21.98994 | -45.30129 | 30794 ft | 474 kts | 40° |
| 2026-04-14 22:24 | -21.96345 | -45.27864 | 31085 ft | 478 kts | 40° |
| 2026-04-14 22:24 | -21.93729 | -45.25648 | 31364 ft | 482 kts | 39° |
| 2026-04-14 22:25 | -21.91063 | -45.23397 | 31616 ft | 486 kts | 39° |
| 2026-04-14 22:25 | -21.88397 | -45.21150 | 31877 ft | 489 kts | 39° |
| 2026-04-14 22:25 | -21.85661 | -45.18844 | 32153 ft | 492 kts | 39° |
| 2026-04-14 22:25 | -21.82963 | -45.16572 | 32497 ft | 493 kts | 40° |
| 2026-04-14 22:26 | -21.80215 | -45.14258 | 32853 ft | 493 kts | 40° |
| 2026-04-14 22:26 | -21.77489 | -45.11965 | 33209 ft | 494 kts | 40° |
| 2026-04-14 22:26 | -21.74744 | -45.09656 | 33622 ft | 494 kts | 39° |
| 2026-04-14 22:26 | -21.72016 | -45.07363 | 34045 ft | 494 kts | 40° |
| 2026-04-14 22:27 | -21.69300 | -45.05081 | 34446 ft | 493 kts | 39° |
| 2026-04-14 22:27 | -21.66571 | -45.02789 | 34896 ft | 492 kts | 39° |
| 2026-04-14 22:27 | -21.63829 | -45.00488 | 35342 ft | 490 kts | 39° |
| 2026-04-14 22:27 | -21.61128 | -44.98222 | 35702 ft | 491 kts | 39° |
| 2026-04-14 22:28 | -21.58433 | -44.95962 | 36068 ft | 490 kts | 39° |
| 2026-04-14 22:28 | -21.55744 | -44.93709 | 36413 ft | 491 kts | 39° |
| 2026-04-14 22:28 | -21.53073 | -44.91471 | 36738 ft | 491 kts | 39° |
| 2026-04-14 22:28 | -21.50328 | -44.89173 | 37082 ft | 487 kts | 39° |
| 2026-04-14 22:29 | -21.47691 | -44.86965 | 37112 ft | 488 kts | 39° |
| 2026-04-14 22:29 | -21.42245 | -44.82411 | 37142 ft | 501 kts | 39° |
| 2026-04-14 22:30 | -21.36645 | -44.77732 | 37141 ft | 514 kts | 39° |
| 2026-04-14 22:30 | -21.30958 | -44.72983 | 37135 ft | 519 kts | 39° |
| 2026-04-14 22:31 | -21.25294 | -44.68256 | 37133 ft | 517 kts | 39° |
| 2026-04-14 22:31 | -21.19598 | -44.63508 | 37138 ft | 516 kts | 39° |
| 2026-04-14 22:32 | -21.13897 | -44.58761 | 37142 ft | 516 kts | 39° |
| 2026-04-14 22:32 | -21.08213 | -44.54032 | 37142 ft | 515 kts | 39° |
| 2026-04-14 22:33 | -21.02560 | -44.49333 | 37143 ft | 513 kts | 39° |
| 2026-04-14 22:33 | -20.96909 | -44.44641 | 37144 ft | 513 kts | 39° |
| 2026-04-14 22:34 | -20.91215 | -44.39922 | 37148 ft | 513 kts | 39° |
| 2026-04-14 22:34 | -20.85558 | -44.35238 | 37141 ft | 513 kts | 39° |
| 2026-04-14 22:35 | -20.79887 | -44.30548 | 37141 ft | 512 kts | 39° |
| 2026-04-14 22:35 | -20.74189 | -44.25839 | 37143 ft | 512 kts | 39° |
| 2026-04-14 22:36 | -20.68519 | -44.21158 | 37135 ft | 512 kts | 39° |
| 2026-04-14 22:36 | -20.62874 | -44.16489 | 37126 ft | 511 kts | 40° |
| 2026-04-14 22:37 | -20.57284 | -44.11772 | 37123 ft | 511 kts | 40° |
| 2026-04-14 22:37 | -20.51673 | -44.07047 | 37124 ft | 511 kts | 40° |
| 2026-04-14 22:38 | -20.46054 | -44.02426 | 37124 ft | 510 kts | 39° |
| 2026-04-14 22:38 | -20.40413 | -43.97810 | 37129 ft | 510 kts | 39° |
| 2026-04-14 22:39 | -20.34789 | -43.93211 | 37129 ft | 510 kts | 39° |
| 2026-04-14 22:39 | -20.29108 | -43.88571 | 37128 ft | 509 kts | 39° |
| 2026-04-14 22:40 | -20.23490 | -43.83985 | 37128 ft | 509 kts | 39° |
| 2026-04-14 22:40 | -20.17878 | -43.79409 | 37127 ft | 509 kts | 39° |
| 2026-04-14 22:41 | -20.12221 | -43.74800 | 37137 ft | 510 kts | 39° |
| 2026-04-14 22:41 | -20.06607 | -43.70231 | 37144 ft | 510 kts | 39° |
| 2026-04-14 22:42 | -20.00944 | -43.65627 | 37143 ft | 510 kts | 39° |
| 2026-04-14 22:42 | -19.95316 | -43.61055 | 37141 ft | 510 kts | 39° |
| 2026-04-14 22:43 | -19.89663 | -43.56467 | 37136 ft | 511 kts | 40° |
| 2026-04-14 22:43 | -19.84011 | -43.51870 | 37121 ft | 510 kts | 40° |
| 2026-04-14 22:44 | -19.78366 | -43.47281 | 37124 ft | 510 kts | 40° |
| 2026-04-14 22:44 | -19.72736 | -43.42710 | 37123 ft | 509 kts | 40° |
| 2026-04-14 22:45 | -19.67146 | -43.38174 | 37123 ft | 509 kts | 40° |
| 2026-04-14 22:45 | -19.61489 | -43.33586 | 37122 ft | 508 kts | 39° |
| 2026-04-14 22:46 | -19.55884 | -43.29046 | 37118 ft | 507 kts | 40° |
| 2026-04-14 22:46 | -19.50261 | -43.24494 | 37115 ft | 507 kts | 39° |
| 2026-04-14 22:47 | -19.44609 | -43.19923 | 37110 ft | 508 kts | 39° |
| 2026-04-14 22:47 | -19.39019 | -43.15407 | 37097 ft | 507 kts | 40° |
| 2026-04-14 22:48 | -19.33356 | -43.10835 | 37088 ft | 506 kts | 40° |
| 2026-04-14 22:48 | -19.27754 | -43.06318 | 37079 ft | 507 kts | 39° |
| 2026-04-14 22:49 | -19.22152 | -43.01803 | 37076 ft | 507 kts | 39° |
| 2026-04-14 22:49 | -19.16523 | -42.97272 | 37073 ft | 505 kts | 40° |
| 2026-04-14 22:50 | -19.10950 | -42.92788 | 37076 ft | 505 kts | 40° |
| 2026-04-14 22:50 | -19.05366 | -42.88301 | 37077 ft | 504 kts | 40° |
| 2026-04-14 22:51 | -18.99728 | -42.83773 | 37069 ft | 505 kts | 40° |
| 2026-04-14 22:51 | -18.94126 | -42.79279 | 37080 ft | 505 kts | 39° |
| 2026-04-14 22:52 | -18.88511 | -42.74779 | 37078 ft | 504 kts | 39° |
| 2026-04-14 22:52 | -18.82949 | -42.70327 | 37086 ft | 502 kts | 39° |
| 2026-04-14 22:53 | -18.77375 | -42.65867 | 37096 ft | 502 kts | 39° |
| 2026-04-14 22:53 | -18.71752 | -42.61375 | 37099 ft | 504 kts | 39° |
| 2026-04-14 22:54 | -18.66161 | -42.56908 | 37100 ft | 503 kts | 39° |
| 2026-04-14 22:54 | -18.60596 | -42.52467 | 37079 ft | 502 kts | 39° |
| 2026-04-14 22:55 | -18.55002 | -42.48006 | 37052 ft | 501 kts | 39° |
| 2026-04-14 22:55 | -18.52234 | -42.45801 | 36441 ft | 495 kts | 39° |
| 2026-04-14 22:55 | -18.49507 | -42.43628 | 35864 ft | 487 kts | 39° |
| 2026-04-14 22:55 | -18.46838 | -42.41503 | 35292 ft | 479 kts | 39° |
| 2026-04-14 22:56 | -18.44180 | -42.39387 | 34721 ft | 473 kts | 39° |
| 2026-04-14 22:56 | -18.41571 | -42.37310 | 34165 ft | 474 kts | 39° |
| 2026-04-14 22:56 | -18.38900 | -42.35186 | 33619 ft | 479 kts | 39° |
| 2026-04-14 22:56 | -18.36232 | -42.33065 | 33074 ft | 483 kts | 39° |
| 2026-04-14 22:57 | -18.33525 | -42.30913 | 32550 ft | 483 kts | 38° |
| 2026-04-14 22:57 | -18.30844 | -42.28783 | 32042 ft | 483 kts | 38° |
| 2026-04-14 22:57 | -18.28182 | -42.26670 | 31533 ft | 481 kts | 38° |
| 2026-04-14 22:57 | -18.25506 | -42.24546 | 31025 ft | 480 kts | 37° |
| 2026-04-14 22:58 | -18.22840 | -42.22432 | 30518 ft | 479 kts | 37° |
| 2026-04-14 22:58 | -18.20182 | -42.20325 | 30006 ft | 474 kts | 37° |
| 2026-04-14 22:58 | -18.17576 | -42.18259 | 29496 ft | 469 kts | 36° |
| 2026-04-14 22:58 | -18.14994 | -42.16213 | 28988 ft | 463 kts | 36° |
| 2026-04-14 22:59 | -18.12435 | -42.14187 | 28490 ft | 457 kts | 36° |
| 2026-04-14 22:59 | -18.09906 | -42.12185 | 28001 ft | 453 kts | 36° |
| 2026-04-14 22:59 | -18.07403 | -42.10204 | 27511 ft | 449 kts | 36° |
| 2026-04-14 22:59 | -18.04915 | -42.08236 | 27026 ft | 445 kts | 36° |
| 2026-04-14 23:00 | -18.02460 | -42.06294 | 26545 ft | 441 kts | 36° |
| 2026-04-14 23:00 | -18.00019 | -42.04364 | 26061 ft | 438 kts | 36° |
| 2026-04-14 23:00 | -17.97621 | -42.02469 | 25584 ft | 433 kts | 36° |
| 2026-04-14 23:00 | -17.95218 | -42.00571 | 25092 ft | 429 kts | 36° |
| 2026-04-14 23:01 | -17.92835 | -41.98689 | 24608 ft | 425 kts | 36° |
| 2026-04-14 23:01 | -17.90477 | -41.96827 | 24119 ft | 421 kts | 36° |
| 2026-04-14 23:01 | -17.88171 | -41.95008 | 23637 ft | 416 kts | 36° |
| 2026-04-14 23:01 | -17.85837 | -41.93166 | 23148 ft | 413 kts | 36° |
| 2026-04-14 23:02 | -17.83572 | -41.91380 | 22667 ft | 410 kts | 36° |
| 2026-04-14 23:02 | -17.81308 | -41.89595 | 22471 ft | 404 kts | 36° |
| 2026-04-14 23:02 | -17.79054 | -41.87819 | 22325 ft | 405 kts | 36° |
| 2026-04-14 23:02 | -17.76791 | -41.86036 | 22178 ft | 405 kts | 36° |
| 2026-04-14 23:03 | -17.74509 | -41.84238 | 22025 ft | 405 kts | 36° |
| 2026-04-14 23:03 | -17.72244 | -41.82455 | 21875 ft | 405 kts | 36° |
| 2026-04-14 23:03 | -17.69979 | -41.80672 | 21725 ft | 404 kts | 36° |
| 2026-04-14 23:03 | -17.67763 | -41.78928 | 21574 ft | 402 kts | 36° |
| 2026-04-14 23:04 | -17.65505 | -41.77152 | 21425 ft | 400 kts | 36° |
| 2026-04-14 23:04 | -17.63282 | -41.75404 | 21275 ft | 399 kts | 36° |
| 2026-04-14 23:04 | -17.61055 | -41.73653 | 21125 ft | 400 kts | 36° |
| 2026-04-14 23:04 | -17.58822 | -41.71898 | 20977 ft | 398 kts | 36° |
| 2026-04-14 23:05 | -17.56620 | -41.70168 | 20827 ft | 397 kts | 36° |
| 2026-04-14 23:05 | -17.54411 | -41.68433 | 20679 ft | 395 kts | 36° |
| 2026-04-14 23:05 | -17.52195 | -41.66694 | 20530 ft | 394 kts | 36° |
| 2026-04-14 23:05 | -17.50014 | -41.64981 | 20383 ft | 394 kts | 36° |
| 2026-04-14 23:06 | -17.47819 | -41.63259 | 20239 ft | 393 kts | 36° |
| 2026-04-14 23:06 | -17.45625 | -41.61538 | 20092 ft | 392 kts | 36° |
| 2026-04-14 23:06 | -17.43434 | -41.59820 | 19947 ft | 391 kts | 36° |
| 2026-04-14 23:06 | -17.41248 | -41.58107 | 19802 ft | 389 kts | 36° |
| 2026-04-14 23:07 | -17.39188 | -41.56283 | 19652 ft | 389 kts | 45° |
| 2026-04-14 23:07 | -17.37331 | -41.54194 | 19521 ft | 389 kts | 46° |
| 2026-04-14 23:07 | -17.35501 | -41.52129 | 19380 ft | 387 kts | 46° |
| 2026-04-14 23:07 | -17.33671 | -41.50063 | 19236 ft | 387 kts | 46° |
| 2026-04-14 23:08 | -17.31858 | -41.48018 | 19096 ft | 385 kts | 46° |
| 2026-04-14 23:08 | -17.30026 | -41.45952 | 18953 ft | 384 kts | 46° |
| 2026-04-14 23:08 | -17.28206 | -41.43901 | 18810 ft | 382 kts | 46° |
| 2026-04-14 23:08 | -17.26411 | -41.41877 | 18669 ft | 382 kts | 46° |
| 2026-04-14 23:09 | -17.24599 | -41.39835 | 18523 ft | 380 kts | 46° |
| 2026-04-14 23:09 | -17.22800 | -41.37810 | 18380 ft | 379 kts | 46° |
| 2026-04-14 23:09 | -17.21005 | -41.35787 | 18235 ft | 378 kts | 46° |
| 2026-04-14 23:09 | -17.19203 | -41.33760 | 18087 ft | 377 kts | 46° |
| 2026-04-14 23:10 | -17.17416 | -41.31749 | 17943 ft | 376 kts | 46° |
| 2026-04-14 23:10 | -17.15635 | -41.29745 | 17798 ft | 375 kts | 46° |
| 2026-04-14 23:10 | -17.13847 | -41.27735 | 17653 ft | 373 kts | 45° |
| 2026-04-14 23:10 | -17.12090 | -41.25759 | 17508 ft | 372 kts | 45° |
| 2026-04-14 23:11 | -17.10315 | -41.23764 | 17364 ft | 371 kts | 45° |
| 2026-04-14 23:11 | -17.08562 | -41.21795 | 17227 ft | 371 kts | 45° |
| 2026-04-14 23:11 | -17.06799 | -41.19815 | 17088 ft | 370 kts | 45° |
| 2026-04-14 23:11 | -17.05033 | -41.17831 | 16946 ft | 369 kts | 45° |
| 2026-04-14 23:12 | -17.03290 | -41.15875 | 16809 ft | 367 kts | 45° |
| 2026-04-14 23:12 | -17.01546 | -41.13918 | 16665 ft | 366 kts | 45° |
| 2026-04-14 23:12 | -16.99810 | -41.11971 | 16522 ft | 366 kts | 45° |
| 2026-04-14 23:12 | -16.98066 | -41.10014 | 16379 ft | 365 kts | 45° |
| 2026-04-14 23:13 | -16.96334 | -41.08072 | 16232 ft | 364 kts | 45° |
| 2026-04-14 23:13 | -16.94614 | -41.06145 | 16087 ft | 364 kts | 45° |
| 2026-04-14 23:13 | -16.92885 | -41.04206 | 15944 ft | 363 kts | 45° |
| 2026-04-14 23:13 | -16.91181 | -41.02298 | 15807 ft | 362 kts | 45° |
| 2026-04-14 23:14 | -16.89460 | -41.00370 | 15673 ft | 362 kts | 45° |
| 2026-04-14 23:14 | -16.87752 | -40.98457 | 15531 ft | 361 kts | 45° |
| 2026-04-14 23:14 | -16.86045 | -40.96547 | 15399 ft | 360 kts | 45° |
| 2026-04-14 23:14 | -16.84329 | -40.94626 | 15265 ft | 359 kts | 45° |
| 2026-04-14 23:15 | -16.82629 | -40.92725 | 15128 ft | 358 kts | 45° |
| 2026-04-14 23:15 | -16.80925 | -40.90819 | 14988 ft | 358 kts | 45° |
| 2026-04-14 23:15 | -16.79219 | -40.88911 | 14855 ft | 357 kts | 45° |
| 2026-04-14 23:15 | -16.77538 | -40.87033 | 14722 ft | 356 kts | 45° |
| 2026-04-14 23:16 | -16.75835 | -40.85130 | 14585 ft | 355 kts | 45° |